createdAt,value
2023-05-06T00:00:23.276Z,78.24
2023-05-06T00:03:10.928Z,78.44
2023-05-06T00:05:38.220Z,78.22
2023-05-06T00:08:06.231Z,77.84
2023-05-06T00:10:33.616Z,77.92
2023-05-06T00:13:00.702Z,77.32
2023-05-06T00:15:29.201Z,77.20
2023-05-06T00:17:58.102Z,77.29
2023-05-06T00:20:25.498Z,77.01
2023-05-06T00:22:53.247Z,76.84
2023-05-06T00:25:20.632Z,76.62
2023-05-06T00:27:47.966Z,75.30
2023-05-06T00:30:15.350Z,75.11
2023-05-06T00:32:42.712Z,74.23
2023-05-06T00:35:10.416Z,73.78
2023-05-06T00:37:37.786Z,73.11
2023-05-06T00:40:05.636Z,72.69
2023-05-06T00:42:33.370Z,71.63
2023-05-06T00:45:00.649Z,71.18
2023-05-06T00:47:28.033Z,70.99
2023-05-06T00:49:56.123Z,70.97
2023-05-06T00:52:23.395Z,70.00
2023-05-06T00:54:50.734Z,69.52
2023-05-06T00:57:17.851Z,69.39
2023-05-06T00:59:44.994Z,68.82
2023-05-06T01:02:12.116Z,68.30
2023-05-06T01:04:41.515Z,67.83
2023-05-06T01:07:11.809Z,67.43
2023-05-06T01:09:46.661Z,67.47
2023-05-06T01:12:34.310Z,67.30
2023-05-06T01:15:14.874Z,67.32
2023-05-06T01:17:50.484Z,67.15
2023-05-06T01:20:21.180Z,66.68
2023-05-06T01:22:50.061Z,66.41
2023-05-06T01:25:20.598Z,66.35
2023-05-06T01:27:48.843Z,66.17
2023-05-06T01:30:21.895Z,65.78
2023-05-06T01:33:15.320Z,66.18
2023-05-06T01:36:11.786Z,66.15
2023-05-06T01:39:04.885Z,66.10
2023-05-06T01:41:34.870Z,65.90
2023-05-06T01:44:06.017Z,65.59
2023-05-06T01:46:36.115Z,65.65
2023-05-06T01:49:11.547Z,65.80
2023-05-06T01:51:38.876Z,65.90
2023-05-06T01:54:06.401Z,66.10
2023-05-06T01:56:33.692Z,65.76
2023-05-06T01:59:01.142Z,66.00
2023-05-06T02:01:28.327Z,66.07
2023-05-06T02:03:55.754Z,65.51
2023-05-06T02:06:23.383Z,65.76
2023-05-06T02:08:50.522Z,65.31
2023-05-06T02:11:21.407Z,65.44
2023-05-06T02:13:50.673Z,65.61
2023-05-06T02:16:18.994Z,65.56
2023-05-06T02:18:46.098Z,65.90
2023-05-06T02:21:13.599Z,65.77
2023-05-06T02:23:40.915Z,65.90
2023-05-06T02:26:08.670Z,65.94
2023-05-06T02:28:35.530Z,65.71
2023-05-06T02:31:02.708Z,66.05
2023-05-06T02:33:30.292Z,65.92
2023-05-06T02:35:57.559Z,65.98
2023-05-06T02:38:24.447Z,65.75
2023-05-06T02:40:51.641Z,65.75
2023-05-06T02:43:18.504Z,65.52
2023-05-06T02:45:46.593Z,65.46
2023-05-06T02:48:13.519Z,65.45
2023-05-06T02:50:41.264Z,65.31
2023-05-06T02:53:09.536Z,65.58
2023-05-06T02:55:37.907Z,65.42
2023-05-06T02:58:05.003Z,65.54
2023-05-06T03:00:32.838Z,65.50
2023-05-06T03:02:59.789Z,65.61
2023-05-06T03:05:27.090Z,65.35
2023-05-06T03:07:54.196Z,65.04
2023-05-06T03:10:22.074Z,65.20
2023-05-06T03:12:49.039Z,65.57
2023-05-06T03:15:16.673Z,65.39
2023-05-06T03:17:43.579Z,65.42
2023-05-06T03:20:11.735Z,65.38
2023-05-06T03:22:43.262Z,65.22
2023-05-06T03:25:10.679Z,65.05
2023-05-06T03:27:39.779Z,65.24
2023-05-06T03:30:14.387Z,65.10
2023-05-06T03:32:41.810Z,64.88
2023-05-06T03:35:11.923Z,64.30
2023-05-06T03:37:41.953Z,64.52
2023-05-06T03:40:09.840Z,64.35
2023-05-06T03:42:37.213Z,64.03
2023-05-06T03:45:06.702Z,64.01
2023-05-06T03:47:34.371Z,64.09
2023-05-06T03:50:03.465Z,63.89
2023-05-06T03:52:32.736Z,63.98
2023-05-06T03:55:00.549Z,63.81
2023-05-06T03:57:29.521Z,64.11
2023-05-06T03:59:57.506Z,64.15
2023-05-06T04:02:26.823Z,64.26
2023-05-06T04:04:54.874Z,64.19
2023-05-06T04:07:21.771Z,63.98
2023-05-06T04:09:49.923Z,63.96
2023-05-06T04:12:17.626Z,64.00
2023-05-06T04:14:45.903Z,64.09
2023-05-06T04:17:13.410Z,63.96
2023-05-06T04:19:40.639Z,63.85
2023-05-06T04:22:07.609Z,63.96
2023-05-06T04:24:34.862Z,63.87
2023-05-06T04:27:03.591Z,63.73
2023-05-06T04:29:31.113Z,64.09
2023-05-06T04:32:02.989Z,64.01
2023-05-06T04:34:32.425Z,63.89
2023-05-06T04:37:01.665Z,64.31
2023-05-06T04:39:40.323Z,64.66
2023-05-06T04:42:07.948Z,64.49
2023-05-06T04:44:45.807Z,64.71
2023-05-06T04:47:12.966Z,64.96
2023-05-06T04:49:43.133Z,65.37
2023-05-06T04:52:10.610Z,65.53
2023-05-06T04:54:37.737Z,65.93
2023-05-06T04:57:05.281Z,65.93
2023-05-06T04:59:33.996Z,65.70
2023-05-06T05:02:02.521Z,65.82
2023-05-06T05:04:29.920Z,65.79
2023-05-06T05:06:57.808Z,65.82
2023-05-06T05:09:25.878Z,66.21
2023-05-06T05:11:53.136Z,66.13
2023-05-06T05:14:21.490Z,66.31
2023-05-06T05:16:48.954Z,66.21
2023-05-06T05:19:16.493Z,66.18
2023-05-06T05:21:43.814Z,66.52
2023-05-06T05:24:13.526Z,66.30
2023-05-06T05:26:40.811Z,66.32
2023-05-06T05:29:08.373Z,66.32
2023-05-06T05:31:37.233Z,66.25
2023-05-06T05:34:05.403Z,66.32
2023-05-06T05:36:32.441Z,66.51
2023-05-06T05:39:02.883Z,66.69
2023-05-06T05:41:32.714Z,66.43
2023-05-06T05:44:00.294Z,66.59
2023-05-06T05:46:27.547Z,66.77
2023-05-06T05:48:56.334Z,66.86
2023-05-06T05:51:24.168Z,66.41
2023-05-06T05:53:52.473Z,66.35
2023-05-06T05:56:21.281Z,65.45
2023-05-06T05:58:49.395Z,64.33
2023-05-06T06:01:17.610Z,63.73
2023-05-06T06:03:45.818Z,63.11
2023-05-06T06:06:13.166Z,62.54
2023-05-06T06:08:41.910Z,60.78
2023-05-06T06:11:09.544Z,60.36
2023-05-06T06:13:41.379Z,59.03
2023-05-06T06:16:09.247Z,58.95
2023-05-06T06:18:36.718Z,58.25
2023-05-06T06:21:04.146Z,58.00
2023-05-06T06:23:31.424Z,57.07
2023-05-06T06:25:58.913Z,56.60
2023-05-06T06:28:26.341Z,56.39
2023-05-06T06:30:54.114Z,56.16
2023-05-06T06:33:21.749Z,55.65
2023-05-06T06:35:49.166Z,55.79
2023-05-06T06:38:16.593Z,56.06
2023-05-06T06:40:43.886Z,54.97
2023-05-06T06:43:11.594Z,55.30
2023-05-06T06:45:47.645Z,54.72
2023-05-06T06:48:15.858Z,55.18
2023-05-06T06:50:43.053Z,54.88
2023-05-06T06:53:11.037Z,54.19
2023-05-06T06:55:38.481Z,53.85
2023-05-06T06:58:05.721Z,54.39
2023-05-06T07:00:33.509Z,53.84
2023-05-06T07:03:00.789Z,54.37
2023-05-06T07:05:27.857Z,54.09
2023-05-06T07:07:55.689Z,53.20
2023-05-06T07:10:22.916Z,52.98
2023-05-06T07:12:50.020Z,52.82
2023-05-06T07:15:17.320Z,51.75
2023-05-06T07:17:44.576Z,51.66
2023-05-06T07:20:12.438Z,51.26
2023-05-06T07:22:41.353Z,51.38
2023-05-06T07:25:09.119Z,51.53
2023-05-06T07:27:37.066Z,51.56
2023-05-06T07:30:04.882Z,51.38
2023-05-06T07:32:32.152Z,50.90
2023-05-06T07:35:00.235Z,50.53
2023-05-06T07:37:27.896Z,50.89
2023-05-06T07:39:56.996Z,50.78
2023-05-06T07:42:24.426Z,49.96
2023-05-06T07:44:52.053Z,49.73
2023-05-06T07:47:31.671Z,48.41
2023-05-06T07:49:59.346Z,47.95
2023-05-06T07:52:27.400Z,48.35
2023-05-06T07:54:54.722Z,47.80
2023-05-06T07:57:22.678Z,47.53
2023-05-06T07:59:51.875Z,47.92
2023-05-06T08:02:19.279Z,47.71
2023-05-06T08:04:47.243Z,47.82
2023-05-06T08:07:15.866Z,46.53
2023-05-06T08:09:42.857Z,46.97
2023-05-06T08:12:10.657Z,45.56
2023-05-06T08:14:37.516Z,45.98
2023-05-06T08:17:05.517Z,44.90
2023-05-06T08:19:32.396Z,44.75
2023-05-06T08:21:59.861Z,44.92
2023-05-06T08:24:28.830Z,45.58
2023-05-06T08:26:56.613Z,46.03
2023-05-06T08:29:23.694Z,46.37
2023-05-06T08:31:51.471Z,45.79
2023-05-06T08:34:20.677Z,45.59
2023-05-06T08:36:51.119Z,45.73
2023-05-06T08:39:18.359Z,45.47
2023-05-06T08:41:52.443Z,46.68
2023-05-06T08:44:23.580Z,46.86
2023-05-06T08:46:52.110Z,46.05
2023-05-06T08:49:19.045Z,46.86
2023-05-06T08:51:50.037Z,46.61
2023-05-06T08:54:18.308Z,46.31
2023-05-06T08:56:53.286Z,45.69
2023-05-06T08:59:24.956Z,46.17
2023-05-06T09:01:53.619Z,46.14
2023-05-06T09:04:21.131Z,45.41
2023-05-06T09:06:48.565Z,46.62
2023-05-06T09:09:15.644Z,45.96
2023-05-06T09:11:43.148Z,45.21
2023-05-06T09:14:15.312Z,46.08
2023-05-06T09:16:45.237Z,45.53
2023-05-06T09:19:14.058Z,44.59
2023-05-06T09:21:44.522Z,44.49
2023-05-06T09:24:13.806Z,44.02
2023-05-06T09:26:42.850Z,43.94
2023-05-06T09:29:11.039Z,43.58
2023-05-06T09:31:42.064Z,44.38
2023-05-06T09:34:09.133Z,44.73
2023-05-06T09:36:37.236Z,44.43
2023-05-06T09:39:05.280Z,46.95
2023-05-06T09:41:33.493Z,47.81
2023-05-06T09:44:01.557Z,50.17
2023-05-06T09:46:29.500Z,51.71
2023-05-06T09:48:58.287Z,52.74
2023-05-06T09:51:27.959Z,53.64
2023-05-06T09:53:57.767Z,56.16
2023-05-06T09:56:25.998Z,56.55
2023-05-06T09:58:55.649Z,57.18
2023-05-06T10:01:35.482Z,54.98
2023-05-06T10:04:08.394Z,58.38
2023-05-06T10:06:37.007Z,58.16
2023-05-06T10:09:06.285Z,56.38
2023-05-06T10:11:34.259Z,55.28
2023-05-06T10:14:02.542Z,53.71
2023-05-06T10:16:31.255Z,51.25
2023-05-06T10:18:59.318Z,51.16
2023-05-06T10:21:32.447Z,49.33
2023-05-06T10:24:07.474Z,51.06
2023-05-06T10:26:39.550Z,50.55
2023-05-06T10:29:11.034Z,50.36
2023-05-06T10:31:40.545Z,51.11
2023-05-06T10:34:08.114Z,48.48
2023-05-06T10:36:36.824Z,48.87
2023-05-06T10:39:04.730Z,49.33
2023-05-06T10:41:33.296Z,47.42
2023-05-06T10:44:00.740Z,47.02
2023-05-06T10:46:30.921Z,46.68
2023-05-06T10:49:11.337Z,47.82
2023-05-06T10:51:48.015Z,46.66
2023-05-06T10:54:18.137Z,47.36
2023-05-06T10:56:48.284Z,48.67
2023-05-06T10:59:21.228Z,47.81
2023-05-06T11:02:02.337Z,47.58
2023-05-06T11:04:33.046Z,46.75
2023-05-06T11:07:12.646Z,46.94
2023-05-06T11:10:00.679Z,46.73
2023-05-06T11:12:49.377Z,46.80
2023-05-06T11:15:21.246Z,46.97
2023-05-06T11:17:48.907Z,47.67
2023-05-06T11:20:21.626Z,46.40
2023-05-06T11:22:49.588Z,46.58
2023-05-06T11:25:42.395Z,46.53
2023-05-06T11:28:14.765Z,48.15
2023-05-06T11:30:43.398Z,46.74
2023-05-06T11:33:19.478Z,49.49
2023-05-06T11:35:46.922Z,49.38
2023-05-06T11:38:14.554Z,50.43
2023-05-06T11:40:42.770Z,50.49
2023-05-06T11:43:14.496Z,49.16
2023-05-06T11:45:47.099Z,50.53
2023-05-06T11:48:16.191Z,51.65
2023-05-06T11:50:47.662Z,50.42
2023-05-06T11:53:19.218Z,51.98
2023-05-06T11:55:48.587Z,51.78
2023-05-06T11:58:18.576Z,52.92
2023-05-06T12:00:51.951Z,52.81
2023-05-06T12:03:20.673Z,52.48
2023-05-06T12:05:48.984Z,49.94
2023-05-06T12:08:27.909Z,50.50
2023-05-06T12:10:59.886Z,50.85
2023-05-06T12:13:27.984Z,53.19
2023-05-06T12:15:56.806Z,55.53
2023-05-06T12:18:25.231Z,55.58
2023-05-06T12:20:56.463Z,57.24
2023-05-06T12:23:23.757Z,57.69
2023-05-06T12:26:08.552Z,58.58
2023-05-06T12:28:37.208Z,60.38
2023-05-06T12:31:21.426Z,61.72
2023-05-06T12:33:49.987Z,62.84
2023-05-06T12:36:18.287Z,64.11
2023-05-06T12:39:01.022Z,62.70
2023-05-06T12:41:45.741Z,64.71
2023-05-06T12:44:32.592Z,66.18
2023-05-06T12:47:01.819Z,66.48
2023-05-06T12:49:46.518Z,68.26
2023-05-06T12:52:13.972Z,67.48
2023-05-06T12:54:41.165Z,69.50
2023-05-06T12:57:08.110Z,71.02
2023-05-06T12:59:36.479Z,71.09
2023-05-06T13:02:04.465Z,71.00
2023-05-06T13:04:32.420Z,72.82
2023-05-06T13:06:59.251Z,73.30
2023-05-06T13:09:26.977Z,74.65
2023-05-06T13:11:53.914Z,75.05
2023-05-06T13:14:22.658Z,76.68
2023-05-06T13:16:49.671Z,77.65
2023-05-06T13:19:31.725Z,78.37
2023-05-06T13:22:00.926Z,79.02
2023-05-06T13:24:29.413Z,79.26
2023-05-06T13:26:57.240Z,79.96
2023-05-06T13:29:24.980Z,79.17
2023-05-06T13:31:52.167Z,79.15
2023-05-06T13:34:19.364Z,80.78
2023-05-06T13:36:47.804Z,82.33
2023-05-06T13:39:18.732Z,82.37
2023-05-06T13:41:50.198Z,82.16
2023-05-06T13:44:20.684Z,84.43
2023-05-06T13:46:48.494Z,84.76
2023-05-06T13:49:16.110Z,86.30
2023-05-06T13:51:43.505Z,87.13
2023-05-06T13:54:11.071Z,88.29
2023-05-06T13:56:38.130Z,88.86
2023-05-06T13:59:05.467Z,89.51
2023-05-06T14:01:32.684Z,90.09
2023-05-06T14:04:00.392Z,90.40
2023-05-06T14:06:27.687Z,90.88
2023-05-06T14:08:55.774Z,90.68
2023-05-06T14:11:22.812Z,91.72
2023-05-06T14:13:50.058Z,91.31
2023-05-06T14:16:17.203Z,92.12
2023-05-06T14:18:45.489Z,92.64
2023-05-06T14:21:12.472Z,91.75
2023-05-06T14:23:39.865Z,91.58
2023-05-06T14:26:07.888Z,92.30
2023-05-06T14:28:35.799Z,92.67
2023-05-06T14:31:02.720Z,93.17
2023-05-06T14:33:29.992Z,93.59
2023-05-06T14:35:58.357Z,93.12
2023-05-06T14:38:25.778Z,93.56
2023-05-06T14:40:52.672Z,93.40
2023-05-06T14:43:19.820Z,93.78
2023-05-06T14:45:46.737Z,93.45
2023-05-06T14:48:14.076Z,93.95
2023-05-06T14:50:41.313Z,94.00
2023-05-06T14:53:08.434Z,94.50
2023-05-06T14:55:35.507Z,94.85
2023-05-06T14:58:03.632Z,94.19
2023-05-06T15:00:31.110Z,94.71
2023-05-06T15:02:59.599Z,95.01
2023-05-06T15:05:27.064Z,95.71
2023-05-06T15:07:54.316Z,95.45
2023-05-06T15:10:22.419Z,95.49
2023-05-06T15:12:49.797Z,95.61
2023-05-06T15:15:16.760Z,95.90
2023-05-06T15:17:43.942Z,96.16
2023-05-06T15:20:11.658Z,96.34
2023-05-06T15:22:39.737Z,95.94
2023-05-06T15:25:09.492Z,96.07
2023-05-06T15:27:39.985Z,96.51
2023-05-06T15:30:07.574Z,96.94
2023-05-06T15:32:35.181Z,97.88
2023-05-06T15:35:04.917Z,97.80
2023-05-06T15:37:33.829Z,97.64
2023-05-06T15:40:01.386Z,97.81
2023-05-06T15:42:29.675Z,98.08
2023-05-06T15:44:57.790Z,98.38
2023-05-06T15:47:25.042Z,98.33
2023-05-06T15:49:55.043Z,98.57
2023-05-06T15:52:23.245Z,98.68
2023-05-06T15:54:50.594Z,99.09
2023-05-06T15:57:18.112Z,98.90
2023-05-06T15:59:45.387Z,99.15
2023-05-06T16:02:26.901Z,99.09
2023-05-06T16:04:54.901Z,99.48
2023-05-06T16:07:22.459Z,99.78
2023-05-06T16:09:50.348Z,99.98
2023-05-06T16:12:17.972Z,99.64
2023-05-06T16:14:44.960Z,99.84
2023-05-06T16:17:12.420Z,99.68
2023-05-06T16:19:39.451Z,99.82
2023-05-06T16:22:07.266Z,100.00
2023-05-06T16:24:34.402Z,99.96
2023-05-06T16:27:02.522Z,100.00
2023-05-06T16:29:29.501Z,100.00
2023-05-06T16:31:57.109Z,100.00
2023-05-06T16:34:24.541Z,100.00
2023-05-06T16:36:52.520Z,100.00
2023-05-06T16:39:19.419Z,100.00
2023-05-06T16:41:48.043Z,100.00
2023-05-06T16:44:15.900Z,100.00
2023-05-06T16:46:43.447Z,100.00
2023-05-06T16:49:10.354Z,100.00
2023-05-06T16:51:38.875Z,100.00
2023-05-06T16:54:06.213Z,100.00
2023-05-06T16:56:48.151Z,100.00
2023-05-06T16:59:21.459Z,100.00
2023-05-06T17:01:50.476Z,100.00
2023-05-06T17:04:17.489Z,100.00
2023-05-06T17:06:44.842Z,100.00
2023-05-06T17:09:12.243Z,100.00
2023-05-06T17:11:39.482Z,100.00
2023-05-06T17:14:06.877Z,100.00
2023-05-06T17:16:34.220Z,100.00
2023-05-06T17:19:01.241Z,100.00
2023-05-06T17:21:28.524Z,100.00
2023-05-06T17:23:55.492Z,100.00
2023-05-06T17:26:22.964Z,100.00
2023-05-06T17:28:51.014Z,100.00
2023-05-06T17:31:18.866Z,100.00
2023-05-06T17:33:45.958Z,100.00
2023-05-06T17:36:13.930Z,100.00
2023-05-06T17:38:40.927Z,100.00
2023-05-06T17:41:08.986Z,100.00
2023-05-06T17:43:36.065Z,100.00
2023-05-06T17:46:03.303Z,100.00
2023-05-06T17:48:31.007Z,100.00
2023-05-06T17:51:02.750Z,100.00
2023-05-06T17:53:29.961Z,100.00
2023-05-06T17:55:57.445Z,100.00
2023-05-06T17:58:24.425Z,100.00
2023-05-06T18:00:52.030Z,100.00
2023-05-06T18:03:19.081Z,100.00
2023-05-06T18:05:46.520Z,100.00
2023-05-06T18:08:13.436Z,100.00
2023-05-06T18:10:41.598Z,100.00
2023-05-06T18:13:08.833Z,100.00
2023-05-06T18:15:36.232Z,100.00
2023-05-06T18:18:03.645Z,100.00
2023-05-06T18:20:30.850Z,100.00
2023-05-06T18:22:58.925Z,100.00
2023-05-06T18:25:26.099Z,100.00
2023-05-06T18:27:53.588Z,100.00
2023-05-06T18:30:20.785Z,100.00
2023-05-06T18:32:50.734Z,100.00
2023-05-06T18:35:18.982Z,100.00
2023-05-06T18:37:46.024Z,100.00
2023-05-06T18:40:14.617Z,100.00
2023-05-06T18:42:41.484Z,100.00
2023-05-06T18:45:09.648Z,100.00
2023-05-06T18:47:37.605Z,100.00
2023-05-06T18:50:06.617Z,100.00
2023-05-06T18:52:33.600Z,100.00
2023-05-06T18:55:02.556Z,100.00
2023-05-06T18:57:29.839Z,100.00
2023-05-06T18:59:57.238Z,100.00
2023-05-06T19:02:24.130Z,100.00
2023-05-06T19:04:52.150Z,100.00
2023-05-06T19:07:19.003Z,100.00
2023-05-06T19:09:46.429Z,100.00
2023-05-06T19:12:13.411Z,100.00
2023-05-06T19:14:40.961Z,100.00
2023-05-06T19:17:07.982Z,100.00
2023-05-06T19:19:35.846Z,100.00
2023-05-06T19:22:02.973Z,100.00
2023-05-06T19:24:31.109Z,100.00
2023-05-06T19:26:58.143Z,100.00
2023-05-06T19:29:25.298Z,100.00
2023-05-06T19:31:52.252Z,100.00
2023-05-06T19:34:19.535Z,100.00
2023-05-06T19:36:46.888Z,100.00
2023-05-06T19:39:14.746Z,100.00
2023-05-06T19:41:42.294Z,100.00
2023-05-06T19:44:09.386Z,100.00
2023-05-06T19:46:36.623Z,100.00
2023-05-06T19:49:03.979Z,100.00
2023-05-06T19:51:31.775Z,100.00
2023-05-06T19:53:59.150Z,100.00
2023-05-06T19:56:26.179Z,100.00
2023-05-06T19:58:53.629Z,100.00
2023-05-06T20:01:23.775Z,100.00
2023-05-06T20:03:51.942Z,100.00
2023-05-06T20:06:18.817Z,100.00
2023-05-06T20:08:46.452Z,100.00
2023-05-06T20:11:13.313Z,100.00
2023-05-06T20:13:40.941Z,100.00
2023-05-06T20:16:07.973Z,100.00
2023-05-06T20:18:35.606Z,100.00
2023-05-06T20:21:02.547Z,100.00
2023-05-06T20:23:31.382Z,100.00
2023-05-06T20:25:58.193Z,100.00
2023-05-06T20:28:26.413Z,100.00
2023-05-06T20:30:53.472Z,100.00
2023-05-06T20:33:20.809Z,100.00
2023-05-06T20:35:48.118Z,100.00
2023-05-06T20:38:17.014Z,100.00
2023-05-06T20:40:43.889Z,100.00
2023-05-06T20:43:11.951Z,100.00
2023-05-06T20:45:38.879Z,100.00
2023-05-06T20:48:06.503Z,100.00
2023-05-06T20:50:34.087Z,100.00
2023-05-06T20:53:02.344Z,100.00
2023-05-06T20:55:29.221Z,100.00
2023-05-06T20:57:56.482Z,100.00
2023-05-06T21:00:23.290Z,100.00
2023-05-06T21:02:50.889Z,100.00
2023-05-06T21:05:17.810Z,100.00
2023-05-06T21:07:45.546Z,100.00
2023-05-06T21:10:12.658Z,100.00
2023-05-06T21:12:46.278Z,100.00
2023-05-06T21:15:13.387Z,100.00
2023-05-06T21:17:41.065Z,100.00
2023-05-06T21:20:09.061Z,100.00
2023-05-06T21:22:36.204Z,100.00
2023-05-06T21:25:03.640Z,100.00
2023-05-06T21:27:31.333Z,100.00
2023-05-06T21:29:58.423Z,100.00
2023-05-06T21:32:25.817Z,100.00
2023-05-06T21:34:53.293Z,100.00
2023-05-06T21:37:20.414Z,100.00
2023-05-06T21:39:47.499Z,100.00
2023-05-06T21:42:14.633Z,100.00
2023-05-06T21:44:41.951Z,100.00
2023-05-06T21:47:09.561Z,100.00
2023-05-06T21:49:36.633Z,100.00
2023-05-06T21:52:05.318Z,100.00
2023-05-06T21:54:32.425Z,100.00
2023-05-06T21:56:59.616Z,100.00
2023-05-06T21:59:26.738Z,100.00
2023-05-06T22:01:53.858Z,100.00
2023-05-06T22:04:21.187Z,100.00
2023-05-06T22:06:48.265Z,100.00
2023-05-06T22:09:15.827Z,100.00
2023-05-06T22:11:43.022Z,100.00
2023-05-06T22:14:10.269Z,100.00
2023-05-06T22:16:38.075Z,100.00
2023-05-06T22:19:06.648Z,100.00
2023-05-06T22:21:36.981Z,100.00
2023-05-06T22:24:04.301Z,100.00
2023-05-06T22:26:33.036Z,100.00
2023-05-06T22:29:00.145Z,100.00
2023-05-06T22:31:27.277Z,100.00
2023-05-06T22:33:58.234Z,100.00
2023-05-06T22:36:29.519Z,100.00
2023-05-06T22:38:57.014Z,100.00
2023-05-06T22:41:24.206Z,100.00
2023-05-06T22:43:51.562Z,100.00
2023-05-06T22:46:18.906Z,100.00
2023-05-06T22:48:46.327Z,100.00
2023-05-06T22:51:17.807Z,100.00
2023-05-06T22:53:45.257Z,100.00
2023-05-06T22:56:12.801Z,100.00
2023-05-06T22:58:40.174Z,100.00
2023-05-06T23:01:07.915Z,100.00
2023-05-06T23:03:36.107Z,100.00
2023-05-06T23:06:04.546Z,100.00
2023-05-06T23:08:31.701Z,100.00
2023-05-06T23:10:58.904Z,100.00
2023-05-06T23:13:26.543Z,100.00
2023-05-06T23:15:54.168Z,100.00
2023-05-06T23:18:21.709Z,100.00
2023-05-06T23:20:49.042Z,100.00
2023-05-06T23:23:16.110Z,100.00
2023-05-06T23:25:43.307Z,100.00
2023-05-06T23:28:10.457Z,100.00
2023-05-06T23:30:37.583Z,100.00
2023-05-06T23:33:04.496Z,100.00
2023-05-06T23:35:32.540Z,100.00
2023-05-06T23:37:59.490Z,100.00
2023-05-06T23:40:27.048Z,100.00
2023-05-06T23:42:53.889Z,100.00
2023-05-06T23:45:21.262Z,100.00
2023-05-06T23:47:48.185Z,100.00
2023-05-06T23:50:15.714Z,100.00
2023-05-06T23:52:42.729Z,100.00
2023-05-06T23:55:10.750Z,100.00
2023-05-06T23:57:38.181Z,100.00
